sensor_id;sensor_type;location;lat;lon;timestamp;P1;P2;P0
45990;PMS5003;31721;41.740;-88.000;2024-03-02T00:00:37;3;3;
45990;PMS5003;31721;41.740;-88.000;2024-03-02T00:03:05;6;3;
45990;PMS5003;31721;41.740;-88.000;2024-03-02T00:05:35;3;3;
45990;PMS5003;31721;41.740;-88.000;2024-03-02T00:08:03;6;5;
45990;PMS5003;31721;41.740;-88.000;2024-03-02T00:10:36;6;5;
45990;PMS5003;31721;41.740;-88.000;2024-03-02T00:13:05;3;3;
45990;PMS5003;31721;41.740;-88.000;2024-03-02T00:15:39;6;2;
45990;PMS5003;31721;41.740;-88.000;2024-03-02T00:18:11;6;6;
45990;PMS5003;31721;41.740;-88.000;2024-03-02T00:20:40;3;2;
45990;PMS5003;31721;41.740;-88.000;2024-03-02T00:23:09;3;3;
45990;PMS5003;31721;41.740;-88.000;2024-03-02T00:25:41;3;3;
45990;PMS5003;31721;41.740;-88.000;2024-03-02T00:28:12;3;2;
45990;PMS5003;31721;41.740;-88.000;2024-03-02T00:30:49;3;3;
45990;PMS5003;31721;41.740;-88.000;2024-03-02T00:33:22;6;6;
45990;PMS5003;31721;41.740;-88.000;2024-03-02T00:35:53;3;3;
45990;PMS5003;31721;41.740;-88.000;2024-03-02T00:38:21;2;2;
45990;PMS5003;31721;41.740;-88.000;2024-03-02T00:40:49;1;1;
45990;PMS5003;31721;41.740;-88.000;2024-03-02T00:43:32;5;3;
45990;PMS5003;31721;41.740;-88.000;2024-03-02T00:46:08;5;5;
45990;PMS5003;31721;41.740;-88.000;2024-03-02T00:48:38;3;3;
45990;PMS5003;31721;41.740;-88.000;2024-03-02T00:51:11;6;3;
45990;PMS5003;31721;41.740;-88.000;2024-03-02T00:53:39;5;5;
45990;PMS5003;31721;41.740;-88.000;2024-03-02T00:56:09;6;3;
45990;PMS5003;31721;41.740;-88.000;2024-03-02T00:58:37;3;3;
45990;PMS5003;31721;41.740;-88.000;2024-03-02T01:01:06;2;2;
45990;PMS5003;31721;41.740;-88.000;2024-03-02T01:03:34;5;5;
45990;PMS5003;31721;41.740;-88.000;2024-03-02T01:06:03;7;3;
45990;PMS5003;31721;41.740;-88.000;2024-03-02T01:08:32;6;6;
45990;PMS5003;31721;41.740;-88.000;2024-03-02T01:11:00;3;3;
45990;PMS5003;31721;41.740;-88.000;2024-03-02T01:13:28;6;3;
45990;PMS5003;31721;41.740;-88.000;2024-03-02T01:15:57;6;6;
45990;PMS5003;31721;41.740;-88.000;2024-03-02T01:18:26;6;6;
45990;PMS5003;31721;41.740;-88.000;2024-03-02T01:20:54;5;5;
45990;PMS5003;31721;41.740;-88.000;2024-03-02T01:23:22;7;6;
45990;PMS5003;31721;41.740;-88.000;2024-03-02T01:25:51;6;3;
45990;PMS5003;31721;41.740;-88.000;2024-03-02T01:28:19;5;5;
45990;PMS5003;31721;41.740;-88.000;2024-03-02T01:30:47;5;5;
45990;PMS5003;31721;41.740;-88.000;2024-03-02T01:33:15;6;5;
45990;PMS5003;31721;41.740;-88.000;2024-03-02T01:35:44;3;3;
45990;PMS5003;31721;41.740;-88.000;2024-03-02T01:38:12;6;3;
45990;PMS5003;31721;41.740;-88.000;2024-03-02T01:40:41;5;5;
45990;PMS5003;31721;41.740;-88.000;2024-03-02T01:43:09;9;6;
45990;PMS5003;31721;41.740;-88.000;2024-03-02T01:45:38;6;5;
45990;PMS5003;31721;41.740;-88.000;2024-03-02T01:48:06;6;5;
45990;PMS5003;31721;41.740;-88.000;2024-03-02T01:50:34;6;5;
45990;PMS5003;31721;41.740;-88.000;2024-03-02T01:53:03;5;5;
45990;PMS5003;31721;41.740;-88.000;2024-03-02T01:55:31;7;7;
45990;PMS5003;31721;41.740;-88.000;2024-03-02T01:57:58;6;6;
45990;PMS5003;31721;41.740;-88.000;2024-03-02T02:00:26;11;10;
45990;PMS5003;31721;41.740;-88.000;2024-03-02T02:02:53;6;5;
45990;PMS5003;31721;41.740;-88.000;2024-03-02T02:05:22;3;3;
45990;PMS5003;31721;41.740;-88.000;2024-03-02T02:07:50;2;2;
45990;PMS5003;31721;41.740;-88.000;2024-03-02T02:10:17;3;3;
45990;PMS5003;31721;41.740;-88.000;2024-03-02T02:12:45;6;6;
45990;PMS5003;31721;41.740;-88.000;2024-03-02T02:15:22;6;6;
45990;PMS5003;31721;41.740;-88.000;2024-03-02T02:17:50;7;6;
45990;PMS5003;31721;41.740;-88.000;2024-03-02T02:20:18;5;5;
45990;PMS5003;31721;41.740;-88.000;2024-03-02T02:23:02;5;5;
45990;PMS5003;31721;41.740;-88.000;2024-03-02T02:25:31;7;6;
45990;PMS5003;31721;41.740;-88.000;2024-03-02T02:27:58;6;6;
45990;PMS5003;31721;41.740;-88.000;2024-03-02T02:30:26;3;3;
45990;PMS5003;31721;41.740;-88.000;2024-03-02T02:32:56;3;3;
45990;PMS5003;31721;41.740;-88.000;2024-03-02T02:35:24;5;5;
45990;PMS5003;31721;41.740;-88.000;2024-03-02T02:37:52;7;7;
45990;PMS5003;31721;41.740;-88.000;2024-03-02T02:40:22;5;3;
45990;PMS5003;31721;41.740;-88.000;2024-03-02T02:42:49;5;3;
45990;PMS5003;31721;41.740;-88.000;2024-03-02T02:45:17;6;6;
45990;PMS5003;31721;41.740;-88.000;2024-03-02T02:47:45;6;6;
45990;PMS5003;31721;41.740;-88.000;2024-03-02T02:50:13;2;2;
45990;PMS5003;31721;41.740;-88.000;2024-03-02T02:52:42;9;9;
45990;PMS5003;31721;41.740;-88.000;2024-03-02T02:55:10;10;5;
45990;PMS5003;31721;41.740;-88.000;2024-03-02T02:57:39;9;7;
45990;PMS5003;31721;41.740;-88.000;2024-03-02T03:00:08;5;5;
45990;PMS5003;31721;41.740;-88.000;2024-03-02T03:02:37;9;6;
45990;PMS5003;31721;41.740;-88.000;2024-03-02T03:05:06;7;7;
45990;PMS5003;31721;41.740;-88.000;2024-03-02T03:07:34;6;5;
45990;PMS5003;31721;41.740;-88.000;2024-03-02T03:10:01;7;5;
45990;PMS5003;31721;41.740;-88.000;2024-03-02T03:12:30;5;5;
45990;PMS5003;31721;41.740;-88.000;2024-03-02T03:14:58;5;3;
45990;PMS5003;31721;41.740;-88.000;2024-03-02T03:17:26;9;7;
45990;PMS5003;31721;41.740;-88.000;2024-03-02T03:19:54;6;6;
45990;PMS5003;31721;41.740;-88.000;2024-03-02T03:22:21;7;6;
45990;PMS5003;31721;41.740;-88.000;2024-03-02T03:24:49;5;5;
45990;PMS5003;31721;41.740;-88.000;2024-03-02T03:27:17;5;5;
45990;PMS5003;31721;41.740;-88.000;2024-03-02T03:29:45;3;3;
45990;PMS5003;31721;41.740;-88.000;2024-03-02T03:32:13;8;6;
45990;PMS5003;31721;41.740;-88.000;2024-03-02T03:34:41;8;5;
45990;PMS5003;31721;41.740;-88.000;2024-03-02T03:37:08;8;7;
45990;PMS5003;31721;41.740;-88.000;2024-03-02T03:39:36;5;3;
45990;PMS5003;31721;41.740;-88.000;2024-03-02T03:42:05;7;7;
45990;PMS5003;31721;41.740;-88.000;2024-03-02T03:44:33;6;6;
45990;PMS5003;31721;41.740;-88.000;2024-03-02T03:47:01;3;3;
45990;PMS5003;31721;41.740;-88.000;2024-03-02T03:49:29;3;3;
45990;PMS5003;31721;41.740;-88.000;2024-03-02T03:51:56;7;7;
45990;PMS5003;31721;41.740;-88.000;2024-03-02T03:54:23;5;5;
45990;PMS5003;31721;41.740;-88.000;2024-03-02T03:56:51;7;5;
45990;PMS5003;31721;41.740;-88.000;2024-03-02T03:59:18;7;6;
45990;PMS5003;31721;41.740;-88.000;2024-03-02T04:01:46;5;5;
45990;PMS5003;31721;41.740;-88.000;2024-03-02T04:04:13;9;6;
45990;PMS5003;31721;41.740;-88.000;2024-03-02T04:06:41;7;7;
45990;PMS5003;31721;41.740;-88.000;2024-03-02T04:09:09;6;5;
45990;PMS5003;31721;41.740;-88.000;2024-03-02T04:11:37;5;5;
45990;PMS5003;31721;41.740;-88.000;2024-03-02T04:14:04;5;5;
45990;PMS5003;31721;41.740;-88.000;2024-03-02T04:16:32;6;6;
45990;PMS5003;31721;41.740;-88.000;2024-03-02T04:18:59;7;6;
45990;PMS5003;31721;41.740;-88.000;2024-03-02T04:21:27;10;3;
45990;PMS5003;31721;41.740;-88.000;2024-03-02T04:23:54;7;7;
45990;PMS5003;31721;41.740;-88.000;2024-03-02T04:26:22;7;5;
45990;PMS5003;31721;41.740;-88.000;2024-03-02T04:28:49;8;8;
45990;PMS5003;31721;41.740;-88.000;2024-03-02T04:31:18;6;6;
45990;PMS5003;31721;41.740;-88.000;2024-03-02T04:33:46;5;5;
45990;PMS5003;31721;41.740;-88.000;2024-03-02T04:36:13;7;6;
45990;PMS5003;31721;41.740;-88.000;2024-03-02T04:38:41;5;5;
45990;PMS5003;31721;41.740;-88.000;2024-03-02T04:41:08;10;7;
45990;PMS5003;31721;41.740;-88.000;2024-03-02T04:43:36;3;3;
45990;PMS5003;31721;41.740;-88.000;2024-03-02T04:46:04;9;7;
45990;PMS5003;31721;41.740;-88.000;2024-03-02T04:48:32;7;5;
45990;PMS5003;31721;41.740;-88.000;2024-03-02T04:51:00;11;9;
45990;PMS5003;31721;41.740;-88.000;2024-03-02T04:53:28;6;5;
45990;PMS5003;31721;41.740;-88.000;2024-03-02T04:55:56;10;5;
45990;PMS5003;31721;41.740;-88.000;2024-03-02T04:58:24;9;9;
45990;PMS5003;31721;41.740;-88.000;2024-03-02T05:00:52;6;5;
45990;PMS5003;31721;41.740;-88.000;2024-03-02T05:03:20;12;10;
45990;PMS5003;31721;41.740;-88.000;2024-03-02T05:05:48;6;6;
45990;PMS5003;31721;41.740;-88.000;2024-03-02T05:08:16;7;7;
45990;PMS5003;31721;41.740;-88.000;2024-03-02T05:10:43;18;15;
45990;PMS5003;31721;41.740;-88.000;2024-03-02T05:13:11;10;9;
45990;PMS5003;31721;41.740;-88.000;2024-03-02T05:15:39;5;5;
45990;PMS5003;31721;41.740;-88.000;2024-03-02T05:18:07;7;7;
45990;PMS5003;31721;41.740;-88.000;2024-03-02T05:20:35;9;9;
45990;PMS5003;31721;41.740;-88.000;2024-03-02T05:23:02;9;7;
45990;PMS5003;31721;41.740;-88.000;2024-03-02T05:25:30;7;7;
45990;PMS5003;31721;41.740;-88.000;2024-03-02T05:27:58;8;8;
45990;PMS5003;31721;41.740;-88.000;2024-03-02T05:30:26;6;6;
45990;PMS5003;31721;41.740;-88.000;2024-03-02T05:32:53;10;7;
45990;PMS5003;31721;41.740;-88.000;2024-03-02T05:35:21;9;7;
45990;PMS5003;31721;41.740;-88.000;2024-03-02T05:37:49;9;9;
45990;PMS5003;31721;41.740;-88.000;2024-03-02T05:40:17;14;10;
45990;PMS5003;31721;41.740;-88.000;2024-03-02T05:42:44;7;7;
45990;PMS5003;31721;41.740;-88.000;2024-03-02T05:45:11;10;7;
45990;PMS5003;31721;41.740;-88.000;2024-03-02T05:47:40;7;7;
45990;PMS5003;31721;41.740;-88.000;2024-03-02T05:50:08;8;5;
45990;PMS5003;31721;41.740;-88.000;2024-03-02T05:52:36;11;11;
45990;PMS5003;31721;41.740;-88.000;2024-03-02T05:55:03;11;7;
45990;PMS5003;31721;41.740;-88.000;2024-03-02T05:57:31;11;10;
45990;PMS5003;31721;41.740;-88.000;2024-03-02T05:59:59;9;9;
45990;PMS5003;31721;41.740;-88.000;2024-03-02T06:02:26;6;6;
45990;PMS5003;31721;41.740;-88.000;2024-03-02T06:04:55;8;7;
45990;PMS5003;31721;41.740;-88.000;2024-03-02T06:07:23;7;6;
45990;PMS5003;31721;41.740;-88.000;2024-03-02T06:09:50;7;6;
45990;PMS5003;31721;41.740;-88.000;2024-03-02T06:12:18;10;8;
45990;PMS5003;31721;41.740;-88.000;2024-03-02T06:14:45;10;8;
45990;PMS5003;31721;41.740;-88.000;2024-03-02T06:17:12;6;6;
45990;PMS5003;31721;41.740;-88.000;2024-03-02T06:19:40;11;8;
45990;PMS5003;31721;41.740;-88.000;2024-03-02T06:22:08;10;10;
45990;PMS5003;31721;41.740;-88.000;2024-03-02T06:24:36;7;7;
45990;PMS5003;31721;41.740;-88.000;2024-03-02T06:27:05;8;8;
45990;PMS5003;31721;41.740;-88.000;2024-03-02T06:29:32;10;10;
45990;PMS5003;31721;41.740;-88.000;2024-03-02T06:32:00;7;7;
45990;PMS5003;31721;41.740;-88.000;2024-03-02T06:34:28;8;7;
45990;PMS5003;31721;41.740;-88.000;2024-03-02T06:36:55;12;12;
45990;PMS5003;31721;41.740;-88.000;2024-03-02T06:39:23;8;8;
45990;PMS5003;31721;41.740;-88.000;2024-03-02T06:41:51;7;6;
45990;PMS5003;31721;41.740;-88.000;2024-03-02T06:44:19;8;7;
45990;PMS5003;31721;41.740;-88.000;2024-03-02T06:46:46;7;7;
45990;PMS5003;31721;41.740;-88.000;2024-03-02T06:49:13;6;6;
45990;PMS5003;31721;41.740;-88.000;2024-03-02T06:51:41;11;11;
45990;PMS5003;31721;41.740;-88.000;2024-03-02T06:54:09;8;6;
45990;PMS5003;31721;41.740;-88.000;2024-03-02T06:56:37;10;8;
45990;PMS5003;31721;41.740;-88.000;2024-03-02T06:59:04;12;11;
45990;PMS5003;31721;41.740;-88.000;2024-03-02T07:01:32;6;6;
45990;PMS5003;31721;41.740;-88.000;2024-03-02T07:04:00;12;11;
45990;PMS5003;31721;41.740;-88.000;2024-03-02T07:06:28;11;10;
45990;PMS5003;31721;41.740;-88.000;2024-03-02T07:08:56;6;6;
45990;PMS5003;31721;41.740;-88.000;2024-03-02T07:11:23;10;7;
45990;PMS5003;31721;41.740;-88.000;2024-03-02T07:13:51;7;7;
45990;PMS5003;31721;41.740;-88.000;2024-03-02T07:16:18;10;8;
45990;PMS5003;31721;41.740;-88.000;2024-03-02T07:18:46;11;8;
45990;PMS5003;31721;41.740;-88.000;2024-03-02T07:21:13;10;8;
45990;PMS5003;31721;41.740;-88.000;2024-03-02T07:23:41;7;7;
45990;PMS5003;31721;41.740;-88.000;2024-03-02T07:26:09;10;7;
45990;PMS5003;31721;41.740;-88.000;2024-03-02T07:28:36;7;6;
45990;PMS5003;31721;41.740;-88.000;2024-03-02T07:31:04;12;8;
45990;PMS5003;31721;41.740;-88.000;2024-03-02T07:33:32;8;8;
45990;PMS5003;31721;41.740;-88.000;2024-03-02T07:36:00;11;8;
45990;PMS5003;31721;41.740;-88.000;2024-03-02T07:38:28;11;10;
45990;PMS5003;31721;41.740;-88.000;2024-03-02T07:40:56;10;10;
45990;PMS5003;31721;41.740;-88.000;2024-03-02T07:43:23;8;8;
45990;PMS5003;31721;41.740;-88.000;2024-03-02T07:45:52;8;7;
45990;PMS5003;31721;41.740;-88.000;2024-03-02T07:48:20;6;6;
45990;PMS5003;31721;41.740;-88.000;2024-03-02T07:50:48;10;10;
45990;PMS5003;31721;41.740;-88.000;2024-03-02T07:53:15;8;8;
45990;PMS5003;31721;41.740;-88.000;2024-03-02T07:55:43;10;8;
45990;PMS5003;31721;41.740;-88.000;2024-03-02T07:58:11;10;8;
45990;PMS5003;31721;41.740;-88.000;2024-03-02T08:00:39;10;8;
45990;PMS5003;31721;41.740;-88.000;2024-03-02T08:03:07;6;6;
45990;PMS5003;31721;41.740;-88.000;2024-03-02T08:05:34;8;7;
45990;PMS5003;31721;41.740;-88.000;2024-03-02T08:08:01;12;8;
45990;PMS5003;31721;41.740;-88.000;2024-03-02T08:10:30;8;8;
45990;PMS5003;31721;41.740;-88.000;2024-03-02T08:12:57;7;7;
45990;PMS5003;31721;41.740;-88.000;2024-03-02T08:15:25;10;8;
45990;PMS5003;31721;41.740;-88.000;2024-03-02T08:17:52;10;6;
45990;PMS5003;31721;41.740;-88.000;2024-03-02T08:20:20;13;12;
45990;PMS5003;31721;41.740;-88.000;2024-03-02T08:22:48;12;10;
45990;PMS5003;31721;41.740;-88.000;2024-03-02T08:25:17;11;8;
45990;PMS5003;31721;41.740;-88.000;2024-03-02T08:27:45;10;8;
45990;PMS5003;31721;41.740;-88.000;2024-03-02T08:30:12;8;8;
45990;PMS5003;31721;41.740;-88.000;2024-03-02T08:32:41;8;8;
45990;PMS5003;31721;41.740;-88.000;2024-03-02T08:35:09;9;9;
45990;PMS5003;31721;41.740;-88.000;2024-03-02T08:37:37;11;10;
45990;PMS5003;31721;41.740;-88.000;2024-03-02T08:40:07;14;9;
45990;PMS5003;31721;41.740;-88.000;2024-03-02T08:42:36;11;9;
45990;PMS5003;31721;41.740;-88.000;2024-03-02T08:45:04;16;15;
45990;PMS5003;31721;41.740;-88.000;2024-03-02T08:47:33;14;10;
45990;PMS5003;31721;41.740;-88.000;2024-03-02T08:50:01;11;11;
45990;PMS5003;31721;41.740;-88.000;2024-03-02T08:52:29;12;9;
45990;PMS5003;31721;41.740;-88.000;2024-03-02T08:54:56;12;10;
45990;PMS5003;31721;41.740;-88.000;2024-03-02T08:57:24;13;10;
45990;PMS5003;31721;41.740;-88.000;2024-03-02T08:59:52;8;8;
45990;PMS5003;31721;41.740;-88.000;2024-03-02T09:02:20;15;11;
45990;PMS5003;31721;41.740;-88.000;2024-03-02T09:04:48;11;10;
45990;PMS5003;31721;41.740;-88.000;2024-03-02T09:07:16;10;10;
45990;PMS5003;31721;41.740;-88.000;2024-03-02T09:09:44;9;9;
45990;PMS5003;31721;41.740;-88.000;2024-03-02T09:12:12;10;10;
45990;PMS5003;31721;41.740;-88.000;2024-03-02T09:14:40;13;13;
45990;PMS5003;31721;41.740;-88.000;2024-03-02T09:17:07;11;10;
45990;PMS5003;31721;41.740;-88.000;2024-03-02T09:19:35;11;7;
45990;PMS5003;31721;41.740;-88.000;2024-03-02T09:22:03;18;14;
45990;PMS5003;31721;41.740;-88.000;2024-03-02T09:24:31;18;7;
45990;PMS5003;31721;41.740;-88.000;2024-03-02T09:26:58;21;15;
45990;PMS5003;31721;41.740;-88.000;2024-03-02T09:29:26;13;11;
45990;PMS5003;31721;41.740;-88.000;2024-03-02T09:31:54;9;9;
45990;PMS5003;31721;41.740;-88.000;2024-03-02T09:34:23;14;11;
45990;PMS5003;31721;41.740;-88.000;2024-03-02T09:36:50;15;14;
45990;PMS5003;31721;41.740;-88.000;2024-03-02T09:39:18;17;10;
45990;PMS5003;31721;41.740;-88.000;2024-03-02T09:41:47;12;9;
45990;PMS5003;31721;41.740;-88.000;2024-03-02T09:44:15;12;10;
45990;PMS5003;31721;41.740;-88.000;2024-03-02T09:46:44;12;12;
45990;PMS5003;31721;41.740;-88.000;2024-03-02T09:49:15;16;14;
45990;PMS5003;31721;41.740;-88.000;2024-03-02T09:51:43;13;10;
45990;PMS5003;31721;41.740;-88.000;2024-03-02T09:54:15;9;9;
45990;PMS5003;31721;41.740;-88.000;2024-03-02T09:56:42;12;12;
45990;PMS5003;31721;41.740;-88.000;2024-03-02T09:59:10;14;13;
45990;PMS5003;31721;41.740;-88.000;2024-03-02T10:01:38;16;13;
45990;PMS5003;31721;41.740;-88.000;2024-03-02T10:04:06;12;10;
45990;PMS5003;31721;41.740;-88.000;2024-03-02T10:06:34;10;10;
45990;PMS5003;31721;41.740;-88.000;2024-03-02T10:09:02;12;10;
45990;PMS5003;31721;41.740;-88.000;2024-03-02T10:11:30;14;10;
45990;PMS5003;31721;41.740;-88.000;2024-03-02T10:14:06;17;14;
45990;PMS5003;31721;41.740;-88.000;2024-03-02T10:16:35;13;10;
45990;PMS5003;31721;41.740;-88.000;2024-03-02T10:19:19;13;10;
45990;PMS5003;31721;41.740;-88.000;2024-03-02T10:21:48;16;14;
45990;PMS5003;31721;41.740;-88.000;2024-03-02T10:24:16;14;13;
45990;PMS5003;31721;41.740;-88.000;2024-03-02T10:26:44;16;16;
45990;PMS5003;31721;41.740;-88.000;2024-03-02T10:29:12;31;25;
45990;PMS5003;31721;41.740;-88.000;2024-03-02T10:31:41;24;21;
45990;PMS5003;31721;41.740;-88.000;2024-03-02T10:34:10;18;16;
45990;PMS5003;31721;41.740;-88.000;2024-03-02T10:36:40;19;14;
45990;PMS5003;31721;41.740;-88.000;2024-03-02T10:39:09;16;13;
45990;PMS5003;31721;41.740;-88.000;2024-03-02T10:41:38;13;12;
45990;PMS5003;31721;41.740;-88.000;2024-03-02T10:44:06;15;10;
45990;PMS5003;31721;41.740;-88.000;2024-03-02T10:46:35;16;15;
45990;PMS5003;31721;41.740;-88.000;2024-03-02T10:49:04;10;10;
45990;PMS5003;31721;41.740;-88.000;2024-03-02T10:51:33;16;12;
45990;PMS5003;31721;41.740;-88.000;2024-03-02T10:54:01;19;16;
45990;PMS5003;31721;41.740;-88.000;2024-03-02T10:56:30;27;20;
45990;PMS5003;31721;41.740;-88.000;2024-03-02T10:59:02;17;13;
45990;PMS5003;31721;41.740;-88.000;2024-03-02T11:01:33;15;13;
45990;PMS5003;31721;41.740;-88.000;2024-03-02T11:04:02;17;16;
45990;PMS5003;31721;41.740;-88.000;2024-03-02T11:06:35;17;12;
45990;PMS5003;31721;41.740;-88.000;2024-03-02T11:09:04;16;15;
45990;PMS5003;31721;41.740;-88.000;2024-03-02T11:11:36;15;13;
45990;PMS5003;31721;41.740;-88.000;2024-03-02T11:14:07;16;13;
45990;PMS5003;31721;41.740;-88.000;2024-03-02T11:16:38;13;10;
45990;PMS5003;31721;41.740;-88.000;2024-03-02T11:19:06;16;15;
45990;PMS5003;31721;41.740;-88.000;2024-03-02T11:21:36;17;15;
45990;PMS5003;31721;41.740;-88.000;2024-03-02T11:24:28;23;23;
45990;PMS5003;31721;41.740;-88.000;2024-03-02T11:26:56;24;17;
45990;PMS5003;31721;41.740;-88.000;2024-03-02T11:29:42;25;20;
45990;PMS5003;31721;41.740;-88.000;2024-03-02T11:32:15;29;24;
45990;PMS5003;31721;41.740;-88.000;2024-03-02T11:34:45;27;22;
45990;PMS5003;31721;41.740;-88.000;2024-03-02T11:37:14;23;19;
45990;PMS5003;31721;41.740;-88.000;2024-03-02T11:39:43;15;12;
45990;PMS5003;31721;41.740;-88.000;2024-03-02T11:42:12;18;16;
45990;PMS5003;31721;41.740;-88.000;2024-03-02T11:44:43;19;18;
45990;PMS5003;31721;41.740;-88.000;2024-03-02T11:47:13;26;19;
45990;PMS5003;31721;41.740;-88.000;2024-03-02T11:49:42;22;19;
45990;PMS5003;31721;41.740;-88.000;2024-03-02T11:52:11;25;22;
45990;PMS5003;31721;41.740;-88.000;2024-03-02T11:54:40;20;18;
45990;PMS5003;31721;41.740;-88.000;2024-03-02T11:57:09;22;16;
45990;PMS5003;31721;41.740;-88.000;2024-03-02T11:59:37;18;18;
45990;PMS5003;31721;41.740;-88.000;2024-03-02T12:02:05;25;23;
45990;PMS5003;31721;41.740;-88.000;2024-03-02T12:04:33;19;18;
45990;PMS5003;31721;41.740;-88.000;2024-03-02T12:07:01;15;12;
45990;PMS5003;31721;41.740;-88.000;2024-03-02T12:09:30;19;18;
45990;PMS5003;31721;41.740;-88.000;2024-03-02T12:12:05;18;16;
45990;PMS5003;31721;41.740;-88.000;2024-03-02T12:14:34;14;14;
45990;PMS5003;31721;41.740;-88.000;2024-03-02T12:17:04;21;18;
45990;PMS5003;31721;41.740;-88.000;2024-03-02T12:19:32;25;23;
45990;PMS5003;31721;41.740;-88.000;2024-03-02T12:22:00;21;19;
45990;PMS5003;31721;41.740;-88.000;2024-03-02T12:24:28;22;19;
45990;PMS5003;31721;41.740;-88.000;2024-03-02T12:26:57;19;15;
45990;PMS5003;31721;41.740;-88.000;2024-03-02T12:29:25;19;14;
45990;PMS5003;31721;41.740;-88.000;2024-03-02T12:31:53;22;18;
45990;PMS5003;31721;41.740;-88.000;2024-03-02T12:34:21;31;24;
45990;PMS5003;31721;41.740;-88.000;2024-03-02T12:36:50;22;21;
45990;PMS5003;31721;41.740;-88.000;2024-03-02T12:39:17;19;18;
45990;PMS5003;31721;41.740;-88.000;2024-03-02T12:41:45;18;16;
45990;PMS5003;31721;41.740;-88.000;2024-03-02T12:44:14;19;19;
45990;PMS5003;31721;41.740;-88.000;2024-03-02T12:46:42;21;18;
45990;PMS5003;31721;41.740;-88.000;2024-03-02T12:49:10;25;22;
45990;PMS5003;31721;41.740;-88.000;2024-03-02T12:51:39;19;15;
45990;PMS5003;31721;41.740;-88.000;2024-03-02T12:54:09;21;18;
45990;PMS5003;31721;41.740;-88.000;2024-03-02T12:56:37;21;15;
45990;PMS5003;31721;41.740;-88.000;2024-03-02T12:59:05;21;18;
45990;PMS5003;31721;41.740;-88.000;2024-03-02T13:01:33;25;20;
45990;PMS5003;31721;41.740;-88.000;2024-03-02T13:04:00;22;19;
45990;PMS5003;31721;41.740;-88.000;2024-03-02T13:06:29;29;25;
45990;PMS5003;31721;41.740;-88.000;2024-03-02T13:09:00;29;15;
45990;PMS5003;31721;41.740;-88.000;2024-03-02T13:11:27;33;27;
45990;PMS5003;31721;41.740;-88.000;2024-03-02T13:13:55;29;24;
45990;PMS5003;31721;41.740;-88.000;2024-03-02T13:16:24;39;29;
45990;PMS5003;31721;41.740;-88.000;2024-03-02T13:18:51;22;20;
45990;PMS5003;31721;41.740;-88.000;2024-03-02T13:21:19;34;30;
45990;PMS5003;31721;41.740;-88.000;2024-03-02T13:23:46;23;21;
45990;PMS5003;31721;41.740;-88.000;2024-03-02T13:26:14;24;21;
45990;PMS5003;31721;41.740;-88.000;2024-03-02T13:28:42;27;24;
45990;PMS5003;31721;41.740;-88.000;2024-03-02T13:31:09;44;35;
45990;PMS5003;31721;41.740;-88.000;2024-03-02T13:33:37;31;24;
45990;PMS5003;31721;41.740;-88.000;2024-03-02T13:36:04;32;29;
45990;PMS5003;31721;41.740;-88.000;2024-03-02T13:38:33;26;22;
45990;PMS5003;31721;41.740;-88.000;2024-03-02T13:41:01;37;29;
45990;PMS5003;31721;41.740;-88.000;2024-03-02T13:43:29;38;30;
45990;PMS5003;31721;41.740;-88.000;2024-03-02T13:45:57;50;38;
45990;PMS5003;31721;41.740;-88.000;2024-03-02T13:48:25;51;37;
45990;PMS5003;31721;41.740;-88.000;2024-03-02T13:50:53;29;23;
45990;PMS5003;31721;41.740;-88.000;2024-03-02T13:53:21;39;33;
45990;PMS5003;31721;41.740;-88.000;2024-03-02T13:55:49;45;35;
45990;PMS5003;31721;41.740;-88.000;2024-03-02T13:58:17;28;24;
45990;PMS5003;31721;41.740;-88.000;2024-03-02T14:00:45;36;34;
45990;PMS5003;31721;41.740;-88.000;2024-03-02T14:03:13;43;34;
45990;PMS5003;31721;41.740;-88.000;2024-03-02T14:05:40;38;31;
45990;PMS5003;31721;41.740;-88.000;2024-03-02T14:08:10;32;30;
45990;PMS5003;31721;41.740;-88.000;2024-03-02T14:10:38;28;25;
45990;PMS5003;31721;41.740;-88.000;2024-03-02T14:13:05;35;29;
45990;PMS5003;31721;41.740;-88.000;2024-03-02T14:15:33;44;33;
45990;PMS5003;31721;41.740;-88.000;2024-03-02T14:18:01;29;27;
45990;PMS5003;31721;41.740;-88.000;2024-03-02T14:20:29;29;25;
45990;PMS5003;31721;41.740;-88.000;2024-03-02T14:22:57;43;37;
45990;PMS5003;31721;41.740;-88.000;2024-03-02T14:25:25;32;26;
45990;PMS5003;31721;41.740;-88.000;2024-03-02T14:27:52;30;24;
45990;PMS5003;31721;41.740;-88.000;2024-03-02T14:30:19;34;30;
45990;PMS5003;31721;41.740;-88.000;2024-03-02T14:32:47;33;26;
45990;PMS5003;31721;41.740;-88.000;2024-03-02T14:35:15;29;22;
45990;PMS5003;31721;41.740;-88.000;2024-03-02T14:37:43;29;24;
45990;PMS5003;31721;41.740;-88.000;2024-03-02T14:40:11;35;33;
45990;PMS5003;31721;41.740;-88.000;2024-03-02T14:42:40;50;37;
45990;PMS5003;31721;41.740;-88.000;2024-03-02T14:45:08;33;29;
45990;PMS5003;31721;41.740;-88.000;2024-03-02T14:47:36;36;29;
45990;PMS5003;31721;41.740;-88.000;2024-03-02T14:50:04;27;19;
45990;PMS5003;31721;41.740;-88.000;2024-03-02T14:52:33;29;25;
45990;PMS5003;31721;41.740;-88.000;2024-03-02T14:55:01;28;24;
45990;PMS5003;31721;41.740;-88.000;2024-03-02T14:57:29;34;29;
45990;PMS5003;31721;41.740;-88.000;2024-03-02T14:59:57;29;23;
45990;PMS5003;31721;41.740;-88.000;2024-03-02T15:02:25;34;27;
45990;PMS5003;31721;41.740;-88.000;2024-03-02T15:04:52;25;24;
45990;PMS5003;31721;41.740;-88.000;2024-03-02T15:07:20;25;24;
45990;PMS5003;31721;41.740;-88.000;2024-03-02T15:09:48;25;22;
45990;PMS5003;31721;41.740;-88.000;2024-03-02T15:12:16;24;22;
45990;PMS5003;31721;41.740;-88.000;2024-03-02T15:14:44;30;23;
45990;PMS5003;31721;41.740;-88.000;2024-03-02T15:17:12;30;23;
45990;PMS5003;31721;41.740;-88.000;2024-03-02T15:19:40;35;31;
45990;PMS5003;31721;41.740;-88.000;2024-03-02T15:22:08;27;20;
45990;PMS5003;31721;41.740;-88.000;2024-03-02T15:24:35;26;23;
45990;PMS5003;31721;41.740;-88.000;2024-03-02T15:27:04;29;25;
45990;PMS5003;31721;41.740;-88.000;2024-03-02T15:29:33;20;18;
45990;PMS5003;31721;41.740;-88.000;2024-03-02T15:32:01;27;21;
45990;PMS5003;31721;41.740;-88.000;2024-03-02T15:34:29;20;19;
45990;PMS5003;31721;41.740;-88.000;2024-03-02T15:36:57;25;20;
45990;PMS5003;31721;41.740;-88.000;2024-03-02T15:39:25;27;21;
45990;PMS5003;31721;41.740;-88.000;2024-03-02T15:41:53;27;22;
45990;PMS5003;31721;41.740;-88.000;2024-03-02T15:44:20;27;26;
45990;PMS5003;31721;41.740;-88.000;2024-03-02T15:46:48;21;20;
45990;PMS5003;31721;41.740;-88.000;2024-03-02T15:49:16;30;27;
45990;PMS5003;31721;41.740;-88.000;2024-03-02T15:51:45;23;21;
45990;PMS5003;31721;41.740;-88.000;2024-03-02T15:54:12;23;22;
45990;PMS5003;31721;41.740;-88.000;2024-03-02T15:56:40;28;23;
45990;PMS5003;31721;41.740;-88.000;2024-03-02T15:59:08;22;17;
45990;PMS5003;31721;41.740;-88.000;2024-03-02T16:01:36;24;20;
45990;PMS5003;31721;41.740;-88.000;2024-03-02T16:04:04;21;18;
45990;PMS5003;31721;41.740;-88.000;2024-03-02T16:06:31;29;27;
45990;PMS5003;31721;41.740;-88.000;2024-03-02T16:09:00;22;18;